createdAt,value
2017-10-04T00:02:11.307Z,6.65
2017-10-04T00:04:38.756Z,6.78
2017-10-04T00:07:06.192Z,8.57
2017-10-04T00:09:34.409Z,9.82
2017-10-04T00:12:01.875Z,10.02
2017-10-04T00:14:29.316Z,7.30
2017-10-04T00:16:56.788Z,8.95
2017-10-04T00:19:24.219Z,7.80
2017-10-04T00:21:51.652Z,6.90
2017-10-04T00:24:19.226Z,8.98
2017-10-04T00:26:46.685Z,8.23
2017-10-04T00:29:14.120Z,8.17
2017-10-04T00:31:42.339Z,9.63
2017-10-04T00:34:09.775Z,10.23
2017-10-04T00:36:37.240Z,9.82
2017-10-04T00:39:04.706Z,9.40
2017-10-04T00:41:32.166Z,12.68
2017-10-04T00:43:59.632Z,10.00
2017-10-04T00:46:27.063Z,8.55
2017-10-04T00:48:54.542Z,10.45
2017-10-04T00:51:21.989Z,8.17
2017-10-04T00:53:49.424Z,8.88
2017-10-04T00:56:16.870Z,13.00
2017-10-04T00:58:44.307Z,11.65
2017-10-04T01:01:12.507Z,12.23
2017-10-04T01:03:39.952Z,12.82
2017-10-04T01:06:07.383Z,12.85
2017-10-04T01:08:35.639Z,16.75
2017-10-04T01:11:03.075Z,12.27
2017-10-04T01:13:30.512Z,10.25
2017-10-04T01:15:57.991Z,12.37
2017-10-04T01:18:25.430Z,9.15
2017-10-04T01:20:52.886Z,7.95
2017-10-04T01:23:20.327Z,12.73
2017-10-04T01:25:47.754Z,8.57
2017-10-04T01:28:15.972Z,11.38
2017-10-04T01:30:43.413Z,9.90
2017-10-04T01:33:10.844Z,7.22
2017-10-04T01:35:39.076Z,7.50
2017-10-04T01:38:06.534Z,10.68
2017-10-04T01:40:33.989Z,10.82
2017-10-04T01:43:01.416Z,8.25
2017-10-04T01:45:28.847Z,9.75
2017-10-04T01:47:57.054Z,8.43
2017-10-04T01:50:24.486Z,6.10
2017-10-04T01:52:51.925Z,9.52
2017-10-04T01:55:20.140Z,9.43
2017-10-04T01:57:47.591Z,7.85
2017-10-04T02:00:15.026Z,7.63
2017-10-04T02:02:42.459Z,9.00
2017-10-04T02:05:09.889Z,11.43
2017-10-04T02:07:37.330Z,6.07
2017-10-04T02:10:04.771Z,12.00
2017-10-04T02:12:32.200Z,9.80
2017-10-04T02:15:00.422Z,9.23
2017-10-04T02:17:27.895Z,9.15
2017-10-04T02:19:55.441Z,8.25
2017-10-04T02:22:22.870Z,7.85
2017-10-04T02:24:50.315Z,10.18
2017-10-04T02:27:17.746Z,8.70
2017-10-04T02:29:45.966Z,10.18
2017-10-04T02:32:13.478Z,7.50
2017-10-04T02:34:41.709Z,12.52
2017-10-04T02:37:09.165Z,9.60
2017-10-04T02:39:36.606Z,10.32
2017-10-04T02:42:04.061Z,7.53
2017-10-04T02:44:31.495Z,10.73
2017-10-04T02:46:58.938Z,8.70
2017-10-04T02:49:27.186Z,9.68
2017-10-04T02:51:54.631Z,12.88
2017-10-04T02:54:22.270Z,10.45
2017-10-04T02:56:49.723Z,8.67
2017-10-04T02:59:17.186Z,9.30
2017-10-04T03:01:44.623Z,6.72
2017-10-04T03:04:12.066Z,8.00
2017-10-04T03:06:39.505Z,9.80
2017-10-04T03:09:07.708Z,9.10
2017-10-04T03:11:35.151Z,8.90
2017-10-04T03:14:02.599Z,9.82
2017-10-04T03:16:30.822Z,7.80
2017-10-04T03:18:58.278Z,11.90
2017-10-04T03:21:25.722Z,6.62
2017-10-04T03:23:53.198Z,5.70
2017-10-04T03:26:20.641Z,9.57
2017-10-04T03:28:48.098Z,9.80
2017-10-04T03:31:15.550Z,10.95
2017-10-04T03:33:43.027Z,10.40
2017-10-04T03:36:10.508Z,8.48
2017-10-04T03:38:37.931Z,8.00
2017-10-04T03:41:05.386Z,3.72
2017-10-04T03:43:32.828Z,9.88
2017-10-04T03:46:00.260Z,8.45
2017-10-04T03:48:27.715Z,7.03
2017-10-04T03:50:55.164Z,5.28
2017-10-04T03:53:22.601Z,6.65
2017-10-04T03:55:50.815Z,7.95
2017-10-04T03:58:18.269Z,10.75
2017-10-04T04:00:45.750Z,7.90
2017-10-04T04:03:13.188Z,8.15
2017-10-04T04:05:40.614Z,9.98
2017-10-04T04:08:08.842Z,6.93
2017-10-04T04:10:36.355Z,6.57
2017-10-04T04:13:03.959Z,10.45
2017-10-04T04:15:31.414Z,8.40
2017-10-04T04:17:58.858Z,6.25
2017-10-04T04:20:26.300Z,7.50
2017-10-04T04:22:53.764Z,8.45
2017-10-04T04:25:21.242Z,8.77
2017-10-04T04:27:48.681Z,7.35
2017-10-04T04:30:16.132Z,7.90
2017-10-04T04:32:43.616Z,5.18
2017-10-04T04:35:11.074Z,7.72
2017-10-04T04:37:38.525Z,9.43
2017-10-04T04:40:05.974Z,5.68
2017-10-04T04:42:33.410Z,5.55
2017-10-04T04:45:00.864Z,8.75
2017-10-04T04:47:28.304Z,8.10
2017-10-04T04:49:55.813Z,9.25
2017-10-04T04:52:23.269Z,8.43
2017-10-04T04:54:50.723Z,8.65
2017-10-04T04:57:18.277Z,9.10
2017-10-04T04:59:45.725Z,9.20
2017-10-04T05:02:13.150Z,7.40
2017-10-04T05:04:40.637Z,9.65
2017-10-04T05:07:08.075Z,9.98
2017-10-04T05:09:35.551Z,9.23
2017-10-04T05:12:03.015Z,9.23
2017-10-04T05:14:30.460Z,9.33
2017-10-04T05:16:57.914Z,9.57
2017-10-04T05:19:25.348Z,7.87
2017-10-04T05:21:52.811Z,8.27
2017-10-04T05:24:20.254Z,7.25
2017-10-04T05:26:47.694Z,8.53
2017-10-04T05:29:15.890Z,10.52
2017-10-04T05:31:43.967Z,10.40
2017-10-04T05:34:11.400Z,9.25
2017-10-04T05:36:38.917Z,11.40
2017-10-04T05:39:06.467Z,8.63
2017-10-04T05:41:33.958Z,8.50
2017-10-04T05:44:02.856Z,10.05
2017-10-04T05:46:31.066Z,9.95
2017-10-04T05:48:58.523Z,8.40
2017-10-04T05:51:25.989Z,10.25
2017-10-04T05:53:53.427Z,11.93
2017-10-04T05:56:20.898Z,9.38
2017-10-04T05:58:48.374Z,10.10
2017-10-04T06:01:15.830Z,10.23
2017-10-04T06:03:43.277Z,9.48
2017-10-04T06:06:10.834Z,10.38
2017-10-04T06:08:38.358Z,9.25
2017-10-04T06:11:05.806Z,8.95
2017-10-04T06:13:33.310Z,8.50
2017-10-04T06:16:00.730Z,10.85
2017-10-04T06:18:28.172Z,11.48
2017-10-04T06:20:55.787Z,6.90
2017-10-04T06:23:23.367Z,11.10
2017-10-04T06:25:50.864Z,6.82
2017-10-04T06:28:18.310Z,8.23
2017-10-04T06:30:45.756Z,10.77
2017-10-04T06:33:13.263Z,10.57
2017-10-04T06:35:40.707Z,6.80
2017-10-04T06:38:08.161Z,7.82
2017-10-04T06:40:35.608Z,6.78
2017-10-04T06:43:03.197Z,11.77
2017-10-04T06:45:30.622Z,7.07
2017-10-04T06:47:58.079Z,7.93
2017-10-04T06:50:25.539Z,7.93
2017-10-04T06:52:52.972Z,10.38
2017-10-04T06:55:20.757Z,8.52
2017-10-04T06:57:48.172Z,8.30
2017-10-04T07:00:15.698Z,10.55
2017-10-04T07:02:43.139Z,6.87
2017-10-04T07:05:10.579Z,7.17
2017-10-04T07:07:38.048Z,10.25
2017-10-04T07:10:05.461Z,9.43
2017-10-04T07:12:33.657Z,7.97
2017-10-04T07:15:01.095Z,8.15
2017-10-04T07:17:29.304Z,9.57
2017-10-04T07:19:56.770Z,7.65
2017-10-04T07:22:24.198Z,7.00
2017-10-04T07:24:51.651Z,8.15
2017-10-04T07:27:19.095Z,7.87
2017-10-04T07:29:46.542Z,7.57
2017-10-04T07:32:14.744Z,8.93
2017-10-04T07:34:42.191Z,8.15
2017-10-04T07:37:09.650Z,13.35
2017-10-04T07:39:37.076Z,7.10
2017-10-04T07:42:05.281Z,10.25
2017-10-04T07:44:32.712Z,6.62
2017-10-04T07:47:00.940Z,13.68
2017-10-04T07:49:28.398Z,7.78
2017-10-04T07:51:55.857Z,8.85
2017-10-04T07:54:23.288Z,4.37
2017-10-04T07:56:50.728Z,6.75
2017-10-04T07:59:18.155Z,9.38
2017-10-04T08:01:45.586Z,7.93
2017-10-04T08:04:13.028Z,7.72
2017-10-04T08:06:40.486Z,7.72
2017-10-04T08:09:07.970Z,9.00
2017-10-04T08:11:35.422Z,7.32
2017-10-04T08:14:02.858Z,10.48
2017-10-04T08:16:30.315Z,7.82
2017-10-04T08:18:57.770Z,8.82
2017-10-04T08:21:25.301Z,7.90
2017-10-04T08:23:52.738Z,8.38
2017-10-04T08:26:20.177Z,10.43
2017-10-04T08:28:47.622Z,10.70
2017-10-04T08:31:15.824Z,8.23
2017-10-04T08:33:44.026Z,5.37
2017-10-04T08:36:11.507Z,7.00
2017-10-04T08:38:38.970Z,7.28
2017-10-04T08:41:06.398Z,6.90
2017-10-04T08:43:33.858Z,5.32
2017-10-04T08:46:01.327Z,7.87
2017-10-04T08:48:36.616Z,11.00
2017-10-04T08:51:04.823Z,7.00
2017-10-04T08:53:32.258Z,8.20
2017-10-04T08:55:59.848Z,8.57
2017-10-04T08:58:27.283Z,5.25
2017-10-04T09:00:54.726Z,11.32
2017-10-04T09:03:22.164Z,6.10
2017-10-04T09:06:02.178Z,6.20
2017-10-04T09:08:29.722Z,6.37
2017-10-04T09:10:57.151Z,6.97
2017-10-04T09:13:24.643Z,9.05
2017-10-04T09:15:52.079Z,6.25
2017-10-04T09:18:19.567Z,8.87
2017-10-04T09:20:46.998Z,7.07
2017-10-04T09:23:14.474Z,6.10
2017-10-04T09:25:41.945Z,8.93
2017-10-04T09:28:09.367Z,6.20
2017-10-04T09:30:36.843Z,8.13
2017-10-04T09:33:04.404Z,8.05
2017-10-04T09:35:32.227Z,6.78
2017-10-04T09:37:59.703Z,7.22
2017-10-04T09:40:27.243Z,7.90
2017-10-04T09:42:54.671Z,6.68
2017-10-04T09:45:22.304Z,10.80
2017-10-04T09:47:49.745Z,7.93
2017-10-04T09:50:17.184Z,8.65
2017-10-04T09:52:44.658Z,5.18
2017-10-04T09:55:12.697Z,7.90
2017-10-04T09:57:40.871Z,9.20
2017-10-04T10:00:08.444Z,6.45
2017-10-04T10:02:35.886Z,5.80
2017-10-04T10:05:03.313Z,8.13
2017-10-04T10:07:31.666Z,10.23
2017-10-04T10:09:59.102Z,8.45
2017-10-04T10:12:26.563Z,6.87
2017-10-04T10:14:54.010Z,7.28
2017-10-04T10:17:21.456Z,7.37
2017-10-04T10:19:48.877Z,6.70
2017-10-04T10:22:17.088Z,9.20
2017-10-04T10:24:44.539Z,4.97
2017-10-04T10:27:12.000Z,7.28
2017-10-04T10:29:39.449Z,6.68
2017-10-04T10:32:06.935Z,6.15
2017-10-04T10:34:34.386Z,7.68
2017-10-04T10:37:01.884Z,8.05
2017-10-04T10:39:30.078Z,9.10
2017-10-04T10:41:57.526Z,7.50
2017-10-04T10:44:24.971Z,8.38
2017-10-04T10:46:53.216Z,8.15
2017-10-04T10:49:20.671Z,5.37
2017-10-04T10:51:48.106Z,8.23
2017-10-04T10:54:15.534Z,7.20
2017-10-04T10:56:43.039Z,9.32
2017-10-04T10:59:10.503Z,6.20
2017-10-04T11:01:37.975Z,7.35
2017-10-04T11:04:05.933Z,5.95
2017-10-04T11:06:33.466Z,9.40
2017-10-04T11:09:00.902Z,5.47
2017-10-04T11:11:28.350Z,7.30
2017-10-04T11:13:55.785Z,5.87
2017-10-04T11:16:24.015Z,6.82
2017-10-04T11:18:51.464Z,4.78
2017-10-04T11:21:18.935Z,6.55
2017-10-04T11:23:46.363Z,7.25
2017-10-04T11:26:14.029Z,6.32
2017-10-04T11:28:41.509Z,7.40
2017-10-04T11:31:08.942Z,8.05
2017-10-04T11:33:36.383Z,5.15
2017-10-04T11:36:03.823Z,6.28
2017-10-04T11:38:31.295Z,5.85
2017-10-04T11:40:58.732Z,5.50
2017-10-04T11:43:26.253Z,8.40
2017-10-04T11:45:53.671Z,7.15
2017-10-04T11:48:21.153Z,5.95
2017-10-04T11:50:48.625Z,6.30
2017-10-04T11:53:16.159Z,6.55
2017-10-04T11:55:43.666Z,6.47
2017-10-04T11:58:12.040Z,7.40
2017-10-04T12:00:39.464Z,7.17
2017-10-04T12:03:07.012Z,7.32
2017-10-04T12:05:34.447Z,5.28
2017-10-04T12:08:01.898Z,5.30
2017-10-04T12:10:29.361Z,5.90
2017-10-04T12:12:56.784Z,9.30
2017-10-04T12:15:25.004Z,6.03
2017-10-04T12:17:52.467Z,6.28
2017-10-04T12:20:19.919Z,6.35
2017-10-04T12:22:47.355Z,6.05
2017-10-04T12:25:14.848Z,5.45
2017-10-04T12:27:42.282Z,7.50
2017-10-04T12:30:09.736Z,6.75
2017-10-04T12:32:37.224Z,5.28
2017-10-04T12:35:04.787Z,5.25
2017-10-04T12:37:32.225Z,7.13
2017-10-04T12:39:59.678Z,5.95
2017-10-04T12:42:27.115Z,7.53
2017-10-04T12:44:54.583Z,6.95
2017-10-04T12:47:23.259Z,4.43
2017-10-04T12:49:50.847Z,4.53
2017-10-04T12:52:18.327Z,6.97
2017-10-04T12:54:46.571Z,6.90
2017-10-04T12:57:14.010Z,6.32
2017-10-04T12:59:41.450Z,4.78
2017-10-04T13:02:08.887Z,8.63
2017-10-04T13:04:36.330Z,4.00
2017-10-04T13:07:04.574Z,6.80
2017-10-04T13:09:32.014Z,4.37
2017-10-04T13:11:59.536Z,5.35
2017-10-04T13:14:27.035Z,7.57
2017-10-04T13:16:54.543Z,6.65
2017-10-04T13:19:22.002Z,6.68
2017-10-04T13:21:49.506Z,7.47
2017-10-04T13:24:16.957Z,5.00
2017-10-04T13:26:44.405Z,7.50
2017-10-04T13:29:11.905Z,6.93
2017-10-04T13:31:40.170Z,5.90
2017-10-04T13:34:08.115Z,4.70
2017-10-04T13:36:35.552Z,5.95
2017-10-04T13:39:02.990Z,5.07
2017-10-04T13:41:30.587Z,6.22
2017-10-04T13:43:58.655Z,5.00
2017-10-04T13:46:26.227Z,4.55
2017-10-04T13:48:53.672Z,9.68
2017-10-04T13:51:21.109Z,6.18
2017-10-04T13:53:48.546Z,5.60
2017-10-04T13:56:15.995Z,5.90
2017-10-04T13:58:44.233Z,5.00
2017-10-04T14:01:11.702Z,4.10
2017-10-04T14:03:39.310Z,3.35
2017-10-04T14:06:06.725Z,5.45
2017-10-04T14:08:34.170Z,6.85
2017-10-04T14:11:01.784Z,5.18
2017-10-04T14:13:29.214Z,5.47
2017-10-04T14:15:57.067Z,3.50
2017-10-04T14:18:24.549Z,5.40
2017-10-04T14:20:52.036Z,4.85
2017-10-04T14:23:19.487Z,7.05
2017-10-04T14:25:46.911Z,6.30
2017-10-04T14:28:15.227Z,5.32
2017-10-04T14:30:42.682Z,4.40
2017-10-04T14:33:10.123Z,5.63
2017-10-04T14:35:37.556Z,5.68
2017-10-04T14:38:05.003Z,4.45
2017-10-04T14:40:33.202Z,4.60
2017-10-04T14:43:00.636Z,6.28
2017-10-04T14:45:28.147Z,4.85
2017-10-04T14:47:55.574Z,5.20
2017-10-04T14:50:23.055Z,5.15
2017-10-04T14:52:50.498Z,5.95
2017-10-04T14:55:17.979Z,3.10
2017-10-04T14:57:45.435Z,4.45
2017-10-04T15:00:12.893Z,5.45
2017-10-04T15:02:40.323Z,7.53
2017-10-04T15:05:07.764Z,4.35
2017-10-04T15:07:35.204Z,4.60
2017-10-04T15:10:02.696Z,4.87
2017-10-04T15:12:30.168Z,6.82
2017-10-04T15:14:57.598Z,3.10
2017-10-04T15:17:25.146Z,4.68
2017-10-04T15:19:52.623Z,5.18
2017-10-04T15:22:20.066Z,6.40
2017-10-04T15:24:47.547Z,4.30
2017-10-04T15:27:15.012Z,9.27
2017-10-04T15:29:42.437Z,5.82
2017-10-04T15:32:09.928Z,6.47
2017-10-04T15:34:37.345Z,5.27
2017-10-04T15:37:04.799Z,5.20
2017-10-04T15:39:32.242Z,4.50
2017-10-04T15:41:59.739Z,5.85
2017-10-04T15:44:27.190Z,3.75
2017-10-04T15:46:54.633Z,4.15
2017-10-04T15:49:22.091Z,4.43
2017-10-04T15:51:49.520Z,6.23
2017-10-04T15:54:16.975Z,5.20
2017-10-04T15:56:44.413Z,5.20
2017-10-04T15:59:12.617Z,5.05
2017-10-04T16:01:40.094Z,5.50
2017-10-04T16:04:08.118Z,8.02
2017-10-04T16:06:36.323Z,6.20
2017-10-04T16:09:03.806Z,4.43
2017-10-04T16:11:31.235Z,5.12
2017-10-04T16:13:58.684Z,6.15
2017-10-04T16:16:26.147Z,5.87
2017-10-04T16:18:53.635Z,7.63
2017-10-04T16:21:21.075Z,7.72
2017-10-04T16:23:48.512Z,5.07
2017-10-04T16:26:16.004Z,5.07
2017-10-04T16:28:43.453Z,6.20
2017-10-04T16:31:10.883Z,6.90
2017-10-04T16:33:38.357Z,5.65
2017-10-04T16:36:05.830Z,4.93
2017-10-04T16:38:33.289Z,8.50
2017-10-04T16:41:00.814Z,5.50
2017-10-04T16:43:28.442Z,5.43
2017-10-04T16:45:55.876Z,4.07
2017-10-04T16:48:23.312Z,6.20
2017-10-04T16:50:50.873Z,5.62
2017-10-04T16:53:18.605Z,4.20
2017-10-04T16:55:46.027Z,5.55
2017-10-04T16:58:14.274Z,6.28
2017-10-04T17:00:41.725Z,4.60
2017-10-04T17:03:09.154Z,6.57
2017-10-04T17:05:36.840Z,8.57
2017-10-04T17:08:04.286Z,6.12
2017-10-04T17:10:31.726Z,4.57
2017-10-04T17:12:59.149Z,4.93
2017-10-04T17:15:27.380Z,8.73
2017-10-04T17:17:55.423Z,5.50
2017-10-04T17:20:22.882Z,4.90
2017-10-04T17:22:50.440Z,6.03
2017-10-04T17:25:17.854Z,4.78
2017-10-04T17:27:46.058Z,3.00
2017-10-04T17:30:13.482Z,5.53
2017-10-04T17:32:41.698Z,7.35
2017-10-04T17:35:09.175Z,7.47
2017-10-04T17:37:36.608Z,6.03
2017-10-04T17:40:04.054Z,6.55
2017-10-04T17:42:31.647Z,6.82
2017-10-04T17:44:59.289Z,8.05
2017-10-04T17:47:26.735Z,13.30
2017-10-04T17:49:54.317Z,7.53
2017-10-04T17:52:21.765Z,6.72
2017-10-04T17:54:49.186Z,8.68
2017-10-04T17:57:16.737Z,7.70
2017-10-04T17:59:44.935Z,8.60
2017-10-04T18:02:12.402Z,5.87
2017-10-04T18:04:39.857Z,8.35
2017-10-04T18:07:07.331Z,4.90
2017-10-04T18:09:34.873Z,4.37
2017-10-04T18:12:02.435Z,8.50
2017-10-04T18:14:29.912Z,9.15
2017-10-04T18:16:57.373Z,5.07
2017-10-04T18:19:24.827Z,8.47
2017-10-04T18:21:52.266Z,5.82
2017-10-04T18:24:19.719Z,9.38
2017-10-04T18:26:47.179Z,7.55
2017-10-04T18:29:14.726Z,7.90
2017-10-04T18:31:42.159Z,9.00
2017-10-04T18:34:09.601Z,7.68
2017-10-04T18:36:37.120Z,10.18
2017-10-04T18:39:04.591Z,7.15
2017-10-04T18:41:32.022Z,5.45
2017-10-04T18:43:59.504Z,4.70
2017-10-04T18:46:26.922Z,6.03
2017-10-04T18:48:54.499Z,5.37
2017-10-04T18:51:21.951Z,4.65
2017-10-04T18:53:49.394Z,6.32
2017-10-04T18:56:16.822Z,7.07
2017-10-04T18:58:44.287Z,6.57
2017-10-04T19:01:11.801Z,5.82
2017-10-04T19:03:39.246Z,5.97
2017-10-04T19:06:06.691Z,8.23
2017-10-04T19:08:34.145Z,6.10
2017-10-04T19:11:01.600Z,7.12
2017-10-04T19:13:29.028Z,7.87
2017-10-04T19:15:56.520Z,7.47
2017-10-04T19:18:23.948Z,6.68
2017-10-04T19:20:51.434Z,7.53
2017-10-04T19:23:18.893Z,6.55
2017-10-04T19:25:46.354Z,7.97
2017-10-04T19:28:13.803Z,9.40
2017-10-04T19:30:41.254Z,6.85
2017-10-04T19:33:08.702Z,7.45
2017-10-04T19:35:36.162Z,8.87
2017-10-04T19:38:03.630Z,9.60
2017-10-04T19:40:31.199Z,12.23
2017-10-04T19:42:58.650Z,9.05
2017-10-04T19:45:26.097Z,7.20
2017-10-04T19:47:53.851Z,10.40
2017-10-04T19:50:21.371Z,9.10
2017-10-04T19:52:49.582Z,7.72
2017-10-04T19:55:17.019Z,6.22
2017-10-04T19:57:44.467Z,7.22
2017-10-04T20:00:12.058Z,6.47
2017-10-04T20:02:39.535Z,6.70
2017-10-04T20:05:07.086Z,6.87
2017-10-04T20:07:35.573Z,9.20
2017-10-04T20:10:03.023Z,9.23
2017-10-04T20:12:30.654Z,8.32
2017-10-04T20:14:58.083Z,8.25
2017-10-04T20:17:25.589Z,8.07
2017-10-04T20:19:53.040Z,8.75
2017-10-04T20:22:20.482Z,8.32
2017-10-04T20:24:47.951Z,9.02
2017-10-04T20:27:15.395Z,9.38
2017-10-04T20:29:42.842Z,7.43
2017-10-04T20:32:10.341Z,5.85
2017-10-04T20:34:37.786Z,8.03
2017-10-04T20:37:05.224Z,7.45
2017-10-04T20:39:32.666Z,5.22
2017-10-04T20:42:00.153Z,5.35
2017-10-04T20:44:27.597Z,6.50
2017-10-04T20:46:55.084Z,4.97
2017-10-04T20:49:22.514Z,9.70
2017-10-04T20:51:49.964Z,8.25
2017-10-04T20:54:17.450Z,9.63
2017-10-04T20:56:44.893Z,5.82
2017-10-04T20:59:12.324Z,6.57
2017-10-04T21:01:39.782Z,6.35
2017-10-04T21:04:07.236Z,7.20
2017-10-04T21:06:34.672Z,9.00
2017-10-04T21:09:02.106Z,7.47
2017-10-04T21:11:29.567Z,8.25
2017-10-04T21:13:57.786Z,7.32
2017-10-04T21:16:25.233Z,8.32
2017-10-04T21:18:53.483Z,8.60
2017-10-04T21:21:20.988Z,8.20
2017-10-04T21:23:48.432Z,10.73
2017-10-04T21:26:15.860Z,11.90
2017-10-04T21:28:43.299Z,8.30
2017-10-04T21:31:11.489Z,8.45
2017-10-04T21:33:39.675Z,8.10
2017-10-04T21:36:07.097Z,7.72
2017-10-04T21:38:35.347Z,8.30
2017-10-04T21:41:02.786Z,11.45
2017-10-04T21:43:30.229Z,9.05
2017-10-04T21:45:57.678Z,11.23
2017-10-04T21:48:25.156Z,11.70
2017-10-04T21:50:52.622Z,8.50
2017-10-04T21:53:20.078Z,9.70
2017-10-04T21:55:47.511Z,11.23
2017-10-04T21:58:14.933Z,10.10
2017-10-04T22:00:42.634Z,9.48
2017-10-04T22:03:10.073Z,10.52
2017-10-04T22:05:37.503Z,8.77
2017-10-04T22:08:05.708Z,9.57
2017-10-04T22:10:33.146Z,9.68
2017-10-04T22:13:00.601Z,6.85
2017-10-04T22:15:28.070Z,6.90
2017-10-04T22:17:55.506Z,6.50
2017-10-04T22:20:23.702Z,4.90
2017-10-04T22:22:51.139Z,6.60
2017-10-04T22:25:18.576Z,4.72
2017-10-04T22:27:46.810Z,4.85
2017-10-04T22:30:14.263Z,8.57
2017-10-04T22:32:41.694Z,8.02
2017-10-04T22:35:09.264Z,8.73
2017-10-04T22:37:36.704Z,9.25
2017-10-04T22:40:04.192Z,8.90
2017-10-04T22:42:31.650Z,6.07
2017-10-04T22:44:59.098Z,5.93
2017-10-04T22:47:26.554Z,4.78
2017-10-04T22:49:54.024Z,5.72
2017-10-04T22:52:21.466Z,3.10
2017-10-04T22:54:48.897Z,4.00
2017-10-04T22:57:16.390Z,4.70
2017-10-04T22:59:43.827Z,2.83
2017-10-04T23:02:11.311Z,2.95
2017-10-04T23:04:38.743Z,2.50
2017-10-04T23:07:06.179Z,2.10
2017-10-04T23:09:33.614Z,1.60
2017-10-04T23:12:01.061Z,1.73
2017-10-04T23:14:28.494Z,1.87
2017-10-04T23:16:55.983Z,3.00
2017-10-04T23:19:24.189Z,2.10
2017-10-04T23:21:51.618Z,1.80
2017-10-04T23:24:19.167Z,1.92
2017-10-04T23:26:47.375Z,1.80
2017-10-04T23:29:14.801Z,1.80
2017-10-04T23:31:42.982Z,1.98
2017-10-04T23:34:10.462Z,1.65
2017-10-04T23:36:37.878Z,2.30
2017-10-04T23:39:06.108Z,1.40
2017-10-04T23:41:33.558Z,2.10
2017-10-04T23:44:00.992Z,1.98
2017-10-04T23:46:28.426Z,3.47
2017-10-04T23:48:56.654Z,2.30
2017-10-04T23:51:24.097Z,2.70
2017-10-04T23:53:51.575Z,2.90
2017-10-04T23:56:19.022Z,2.10
2017-10-04T23:58:46.497Z,2.87
